sensor_id;sensor_type;location;lat;lon;timestamp;temperature;humidity
8487;DHT22;4280;50.534;8.708;2022-09-06T00:01:16;16.40;28.90
8487;DHT22;4280;50.534;8.708;2022-09-06T00:03:49;16.30;28.80
8487;DHT22;4280;50.534;8.708;2022-09-06T00:06:19;16.30;28.90
8487;DHT22;4280;50.534;8.708;2022-09-06T00:08:54;16.20;28.80
8487;DHT22;4280;50.534;8.708;2022-09-06T00:11:24;16.10;29.60
8487;DHT22;4280;50.534;8.708;2022-09-06T00:13:54;16.00;30.80
8487;DHT22;4280;50.534;8.708;2022-09-06T00:16:24;16.00;31.30
8487;DHT22;4280;50.534;8.708;2022-09-06T00:18:55;16.00;33.00
8487;DHT22;4280;50.534;8.708;2022-09-06T00:21:26;16.00;33.10
8487;DHT22;4280;50.534;8.708;2022-09-06T00:24:00;16.10;31.10
8487;DHT22;4280;50.534;8.708;2022-09-06T00:26:30;16.00;32.30
8487;DHT22;4280;50.534;8.708;2022-09-06T00:29:00;16.10;33.50
8487;DHT22;4280;50.534;8.708;2022-09-06T00:31:30;16.10;33.80
8487;DHT22;4280;50.534;8.708;2022-09-06T00:34:01;16.30;33.50
8487;DHT22;4280;50.534;8.708;2022-09-06T00:36:31;16.40;32.70
8487;DHT22;4280;50.534;8.708;2022-09-06T00:39:03;16.40;32.50
8487;DHT22;4280;50.534;8.708;2022-09-06T00:41:33;16.50;32.70
8487;DHT22;4280;50.534;8.708;2022-09-06T00:44:03;16.50;31.40
8487;DHT22;4280;50.534;8.708;2022-09-06T00:46:33;16.50;29.80
8487;DHT22;4280;50.534;8.708;2022-09-06T00:49:05;16.60;29.10
8487;DHT22;4280;50.534;8.708;2022-09-06T00:51:37;16.60;29.10
8487;DHT22;4280;50.534;8.708;2022-09-06T00:54:10;16.60;29.10
8487;DHT22;4280;50.534;8.708;2022-09-06T00:56:40;16.60;29.10
8487;DHT22;4280;50.534;8.708;2022-09-06T00:59:12;16.50;29.80
8487;DHT22;4280;50.534;8.708;2022-09-06T01:01:42;16.30;33.10
8487;DHT22;4280;50.534;8.708;2022-09-06T01:04:12;16.00;40.70
8487;DHT22;4280;50.534;8.708;2022-09-06T01:06:50;15.80;40.60
8487;DHT22;4280;50.534;8.708;2022-09-06T01:09:31;15.70;40.50
8487;DHT22;4280;50.534;8.708;2022-09-06T01:12:12;15.70;40.50
8487;DHT22;4280;50.534;8.708;2022-09-06T01:14:54;15.60;44.00
8487;DHT22;4280;50.534;8.708;2022-09-06T01:17:33;15.50;46.50
8487;DHT22;4280;50.534;8.708;2022-09-06T01:20:26;15.40;48.70
8487;DHT22;4280;50.534;8.708;2022-09-06T01:23:11;15.40;46.80
8487;DHT22;4280;50.534;8.708;2022-09-06T01:26:14;15.40;47.70
8487;DHT22;4280;50.534;8.708;2022-09-06T01:28:55;15.40;48.10
8487;DHT22;4280;50.534;8.708;2022-09-06T01:31:26;15.40;47.70
8487;DHT22;4280;50.534;8.708;2022-09-06T01:34:10;15.50;47.80
8487;DHT22;4280;50.534;8.708;2022-09-06T01:36:46;15.70;43.10
8487;DHT22;4280;50.534;8.708;2022-09-06T01:39:33;15.90;40.70
8487;DHT22;4280;50.534;8.708;2022-09-06T01:42:04;16.10;38.30
8487;DHT22;4280;50.534;8.708;2022-09-06T01:44:39;16.20;37.70
8487;DHT22;4280;50.534;8.708;2022-09-06T01:47:14;16.30;36.60
8487;DHT22;4280;50.534;8.708;2022-09-06T01:49:57;16.30;36.20
8487;DHT22;4280;50.534;8.708;2022-09-06T01:52:41;16.30;36.60
8487;DHT22;4280;50.534;8.708;2022-09-06T01:55:18;16.20;37.70
8487;DHT22;4280;50.534;8.708;2022-09-06T01:57:54;16.10;38.60
8487;DHT22;4280;50.534;8.708;2022-09-06T02:00:36;16.10;38.40
8487;DHT22;4280;50.534;8.708;2022-09-06T02:03:11;16.20;35.60
8487;DHT22;4280;50.534;8.708;2022-09-06T02:05:45;16.10;37.70
8487;DHT22;4280;50.534;8.708;2022-09-06T02:08:19;16.10;38.00
8487;DHT22;4280;50.534;8.708;2022-09-06T02:10:54;16.00;38.60
8487;DHT22;4280;50.534;8.708;2022-09-06T02:13:26;16.00;37.40
8487;DHT22;4280;50.534;8.708;2022-09-06T02:16:02;15.90;40.60
8487;DHT22;4280;50.534;8.708;2022-09-06T02:18:34;15.80;46.10
8487;DHT22;4280;50.534;8.708;2022-09-06T02:21:09;15.70;48.70
8487;DHT22;4280;50.534;8.708;2022-09-06T02:23:42;15.70;47.60
8487;DHT22;4280;50.534;8.708;2022-09-06T02:26:15;15.90;40.70
8487;DHT22;4280;50.534;8.708;2022-09-06T02:28:46;16.00;39.40
8487;DHT22;4280;50.534;8.708;2022-09-06T02:31:20;16.10;39.10
8487;DHT22;4280;50.534;8.708;2022-09-06T02:33:53;16.00;38.50
8487;DHT22;4280;50.534;8.708;2022-09-06T02:36:23;15.80;40.60
8487;DHT22;4280;50.534;8.708;2022-09-06T02:38:53;15.90;40.70
8487;DHT22;4280;50.534;8.708;2022-09-06T02:41:24;16.10;40.90
8487;DHT22;4280;50.534;8.708;2022-09-06T02:43:54;16.30;38.30
8487;DHT22;4280;50.534;8.708;2022-09-06T02:46:27;16.40;37.80
8487;DHT22;4280;50.534;8.708;2022-09-06T02:48:57;16.50;36.50
8487;DHT22;4280;50.534;8.708;2022-09-06T02:51:27;16.60;35.10
8487;DHT22;4280;50.534;8.708;2022-09-06T02:53:57;16.60;34.80
8487;DHT22;4280;50.534;8.708;2022-09-06T02:56:26;16.70;34.80
8487;DHT22;4280;50.534;8.708;2022-09-06T02:58:57;16.50;34.90
8487;DHT22;4280;50.534;8.708;2022-09-06T03:01:29;16.50;36.70
8487;DHT22;4280;50.534;8.708;2022-09-06T03:03:59;16.40;40.30
8487;DHT22;4280;50.534;8.708;2022-09-06T03:06:29;16.30;40.80
8487;DHT22;4280;50.534;8.708;2022-09-06T03:08:59;16.20;41.10
8487;DHT22;4280;50.534;8.708;2022-09-06T03:11:29;16.10;40.90
8487;DHT22;4280;50.534;8.708;2022-09-06T03:13:58;16.10;40.90
8487;DHT22;4280;50.534;8.708;2022-09-06T03:16:31;16.00;40.80
8487;DHT22;4280;50.534;8.708;2022-09-06T03:19:02;16.00;42.40
8487;DHT22;4280;50.534;8.708;2022-09-06T03:21:32;15.90;43.20
8487;DHT22;4280;50.534;8.708;2022-09-06T03:24:02;15.90;43.00
8487;DHT22;4280;50.534;8.708;2022-09-06T03:26:32;15.90;42.50
8487;DHT22;4280;50.534;8.708;2022-09-06T03:29:02;16.00;42.50
8487;DHT22;4280;50.534;8.708;2022-09-06T03:31:34;16.00;41.00
8487;DHT22;4280;50.534;8.708;2022-09-06T03:34:04;16.00;40.80
8487;DHT22;4280;50.534;8.708;2022-09-06T03:36:36;16.00;40.80
8487;DHT22;4280;50.534;8.708;2022-09-06T03:39:06;16.10;40.90
8487;DHT22;4280;50.534;8.708;2022-09-06T03:41:36;16.20;41.00
8487;DHT22;4280;50.534;8.708;2022-09-06T03:44:06;16.30;41.10
8487;DHT22;4280;50.534;8.708;2022-09-06T03:46:39;16.50;41.10
8487;DHT22;4280;50.534;8.708;2022-09-06T03:49:08;16.60;36.00
8487;DHT22;4280;50.534;8.708;2022-09-06T03:51:38;16.70;35.60
8487;DHT22;4280;50.534;8.708;2022-09-06T03:54:08;16.70;35.20
8487;DHT22;4280;50.534;8.708;2022-09-06T03:56:38;16.70;35.40
8487;DHT22;4280;50.534;8.708;2022-09-06T03:59:08;16.70;36.30
8487;DHT22;4280;50.534;8.708;2022-09-06T04:01:41;16.70;36.50
8487;DHT22;4280;50.534;8.708;2022-09-06T04:04:11;16.70;36.90
8487;DHT22;4280;50.534;8.708;2022-09-06T04:06:41;16.60;38.60
8487;DHT22;4280;50.534;8.708;2022-09-06T07:21:31;16.70;37.50
8487;DHT22;4280;50.534;8.708;2022-09-06T07:24:03;20.50;16.60
8487;DHT22;4280;50.534;8.708;2022-09-06T07:26:34;20.50;16.60
8487;DHT22;4280;50.534;8.708;2022-09-06T07:29:05;20.60;15.80
8487;DHT22;4280;50.534;8.708;2022-09-06T07:31:36;20.70;15.10
8487;DHT22;4280;50.534;8.708;2022-09-06T07:34:26;20.90;14.00
8487;DHT22;4280;50.534;8.708;2022-09-06T07:37:01;21.00;12.50
8487;DHT22;4280;50.534;8.708;2022-09-06T07:39:31;21.10;11.70
8487;DHT22;4280;50.534;8.708;2022-09-06T07:42:02;21.30;11.80
8487;DHT22;4280;50.534;8.708;2022-09-06T07:44:33;21.50;12.00
8487;DHT22;4280;50.534;8.708;2022-09-06T07:47:03;21.50;12.00
8487;DHT22;4280;50.534;8.708;2022-09-06T07:49:53;21.60;11.80
8487;DHT22;4280;50.534;8.708;2022-09-06T07:52:46;21.60;10.50
8487;DHT22;4280;50.534;8.708;2022-09-06T07:55:31;21.80;11.00
8487;DHT22;4280;50.534;8.708;2022-09-06T07:58:01;21.90;9.10
8487;DHT22;4280;50.534;8.708;2022-09-06T08:00:31;21.90;8.80
8487;DHT22;4280;50.534;8.708;2022-09-06T08:03:01;22.00;8.30
8487;DHT22;4280;50.534;8.708;2022-09-06T08:05:31;22.20;7.10
8487;DHT22;4280;50.534;8.708;2022-09-06T08:08:25;22.20;7.10
8487;DHT22;4280;50.534;8.708;2022-09-06T08:11:15;22.30;7.80
8487;DHT22;4280;50.534;8.708;2022-09-06T08:13:47;22.40;7.20
8487;DHT22;4280;50.534;8.708;2022-09-06T08:16:20;22.50;6.80
8487;DHT22;4280;50.534;8.708;2022-09-06T08:18:51;22.60;6.90
8487;DHT22;4280;50.534;8.708;2022-09-06T08:21:39;22.80;6.50
8487;DHT22;4280;50.534;8.708;2022-09-06T08:24:12;22.90;5.50
8487;DHT22;4280;50.534;8.708;2022-09-06T08:26:42;23.10;6.30
8487;DHT22;4280;50.534;8.708;2022-09-06T08:29:12;23.30;5.10
8487;DHT22;4280;50.534;8.708;2022-09-06T08:31:42;23.40;4.30
8487;DHT22;4280;50.534;8.708;2022-09-06T08:34:13;23.50;4.30
8487;DHT22;4280;50.534;8.708;2022-09-06T08:36:43;23.60;2.60
8487;DHT22;4280;50.534;8.708;2022-09-06T08:39:15;23.70;2.70
8487;DHT22;4280;50.534;8.708;2022-09-06T08:41:46;23.70;2.70
8487;DHT22;4280;50.534;8.708;2022-09-06T08:44:19;23.70;2.70
8487;DHT22;4280;50.534;8.708;2022-09-06T08:47:12;23.70;2.70
8487;DHT22;4280;50.534;8.708;2022-09-06T08:49:43;23.80;2.70
8487;DHT22;4280;50.534;8.708;2022-09-06T08:55:16;24.00;2.90
8487;DHT22;4280;50.534;8.708;2022-09-06T08:58:00;24.00;2.90
8487;DHT22;4280;50.534;8.708;2022-09-06T09:00:39;24.20;3.00
8487;DHT22;4280;50.534;8.708;2022-09-06T09:03:13;24.30;1.90
8487;DHT22;4280;50.534;8.708;2022-09-06T09:05:46;24.50;1.00
8487;DHT22;4280;50.534;8.708;2022-09-06T09:08:18;24.40;1.00
8487;DHT22;4280;50.534;8.708;2022-09-06T09:10:56;24.50;1.00
8487;DHT22;4280;50.534;8.708;2022-09-06T09:13:29;24.60;1.00
8487;DHT22;4280;50.534;8.708;2022-09-06T09:16:01;24.70;1.00
8487;DHT22;4280;50.534;8.708;2022-09-06T09:18:33;24.80;1.00
8487;DHT22;4280;50.534;8.708;2022-09-06T09:21:05;24.90;1.00
8487;DHT22;4280;50.534;8.708;2022-09-06T09:23:35;24.90;1.00
8487;DHT22;4280;50.534;8.708;2022-09-06T09:26:08;25.00;1.00
8487;DHT22;4280;50.534;8.708;2022-09-06T09:31:32;25.30;1.00
8487;DHT22;4280;50.534;8.708;2022-09-06T09:34:05;25.40;1.00
8487;DHT22;4280;50.534;8.708;2022-09-06T09:36:39;25.50;1.00
8487;DHT22;4280;50.534;8.708;2022-09-06T09:39:32;25.50;1.00
8487;DHT22;4280;50.534;8.708;2022-09-06T09:42:06;25.50;1.00
8487;DHT22;4280;50.534;8.708;2022-09-06T09:44:40;25.70;1.00
8487;DHT22;4280;50.534;8.708;2022-09-06T09:47:21;25.70;1.00
8487;DHT22;4280;50.534;8.708;2022-09-06T09:49:54;25.70;1.00
8487;DHT22;4280;50.534;8.708;2022-09-06T09:52:24;25.80;1.00
8487;DHT22;4280;50.534;8.708;2022-09-06T09:54:57;25.60;1.00
8487;DHT22;4280;50.534;8.708;2022-09-06T09:57:44;25.70;1.00
8487;DHT22;4280;50.534;8.708;2022-09-06T10:00:30;25.90;1.00
8487;DHT22;4280;50.534;8.708;2022-09-06T10:03:10;25.90;1.00
8487;DHT22;4280;50.534;8.708;2022-09-06T10:05:40;26.00;1.00
8487;DHT22;4280;50.534;8.708;2022-09-06T10:08:11;26.00;1.00
8487;DHT22;4280;50.534;8.708;2022-09-06T10:10:42;26.10;1.00
8487;DHT22;4280;50.534;8.708;2022-09-06T10:13:21;26.20;1.00
8487;DHT22;4280;50.534;8.708;2022-09-06T10:15:52;26.20;1.00
8487;DHT22;4280;50.534;8.708;2022-09-06T10:18:27;26.20;1.00
8487;DHT22;4280;50.534;8.708;2022-09-06T10:20:59;26.00;1.00
8487;DHT22;4280;50.534;8.708;2022-09-06T10:23:32;25.90;1.00
8487;DHT22;4280;50.534;8.708;2022-09-06T10:26:31;26.00;1.00
8487;DHT22;4280;50.534;8.708;2022-09-06T10:29:07;26.20;1.00
8487;DHT22;4280;50.534;8.708;2022-09-06T10:31:45;26.30;1.00
8487;DHT22;4280;50.534;8.708;2022-09-06T10:34:41;26.30;1.00
8487;DHT22;4280;50.534;8.708;2022-09-06T10:37:22;26.40;1.00
8487;DHT22;4280;50.534;8.708;2022-09-06T10:40:04;26.50;1.00
8487;DHT22;4280;50.534;8.708;2022-09-06T10:42:38;26.50;1.00
8487;DHT22;4280;50.534;8.708;2022-09-06T10:45:22;26.70;1.00
8487;DHT22;4280;50.534;8.708;2022-09-06T10:47:58;26.80;1.00
8487;DHT22;4280;50.534;8.708;2022-09-06T10:50:40;27.00;1.00
8487;DHT22;4280;50.534;8.708;2022-09-06T10:53:15;27.00;1.00
8487;DHT22;4280;50.534;8.708;2022-09-06T10:55:56;27.10;1.00
8487;DHT22;4280;50.534;8.708;2022-09-06T10:58:32;27.10;1.00
8487;DHT22;4280;50.534;8.708;2022-09-06T11:01:29;27.20;1.00
8487;DHT22;4280;50.534;8.708;2022-09-06T11:04:00;27.30;1.00
8487;DHT22;4280;50.534;8.708;2022-09-06T11:06:41;27.20;1.00
8487;DHT22;4280;50.534;8.708;2022-09-06T11:09:15;27.40;1.00
8487;DHT22;4280;50.534;8.708;2022-09-06T11:11:48;27.50;1.00
8487;DHT22;4280;50.534;8.708;2022-09-06T11:14:21;27.60;1.00
8487;DHT22;4280;50.534;8.708;2022-09-06T11:16:56;27.60;1.00
8487;DHT22;4280;50.534;8.708;2022-09-06T11:19:30;27.70;1.00
8487;DHT22;4280;50.534;8.708;2022-09-06T11:25:03;27.20;1.00
8487;DHT22;4280;50.534;8.708;2022-09-06T11:27:46;27.30;1.00
8487;DHT22;4280;50.534;8.708;2022-09-06T11:30:23;27.50;1.00
8487;DHT22;4280;50.534;8.708;2022-09-06T11:33:05;27.50;1.00
8487;DHT22;4280;50.534;8.708;2022-09-06T11:35:50;27.50;1.00
8487;DHT22;4280;50.534;8.708;2022-09-06T11:38:22;27.50;1.00
8487;DHT22;4280;50.534;8.708;2022-09-06T11:40:56;27.70;1.00
8487;DHT22;4280;50.534;8.708;2022-09-06T11:43:41;27.80;1.00
8487;DHT22;4280;50.534;8.708;2022-09-06T11:49:31;27.90;1.00
8487;DHT22;4280;50.534;8.708;2022-09-06T11:55:03;28.20;1.00
8487;DHT22;4280;50.534;8.708;2022-09-06T11:57:38;28.20;1.00
8487;DHT22;4280;50.534;8.708;2022-09-06T12:00:09;27.80;1.00
8487;DHT22;4280;50.534;8.708;2022-09-06T12:02:49;27.70;1.00
8487;DHT22;4280;50.534;8.708;2022-09-06T12:05:26;27.70;1.00
8487;DHT22;4280;50.534;8.708;2022-09-06T12:10:58;27.80;1.00
8487;DHT22;4280;50.534;8.708;2022-09-06T12:16:22;28.20;1.00
8487;DHT22;4280;50.534;8.708;2022-09-06T12:18:53;28.30;1.00
8487;DHT22;4280;50.534;8.708;2022-09-06T12:27:19;27.90;1.00
8487;DHT22;4280;50.534;8.708;2022-09-06T12:29:51;28.00;1.00
8487;DHT22;4280;50.534;8.708;2022-09-06T12:32:27;28.00;1.00
8487;DHT22;4280;50.534;8.708;2022-09-06T12:35:02;28.20;1.00
8487;DHT22;4280;50.534;8.708;2022-09-06T12:37:56;28.30;1.00
8487;DHT22;4280;50.534;8.708;2022-09-06T12:40:28;28.50;1.00
8487;DHT22;4280;50.534;8.708;2022-09-06T12:43:01;28.60;1.00
8487;DHT22;4280;50.534;8.708;2022-09-06T12:45:31;28.60;1.00
8487;DHT22;4280;50.534;8.708;2022-09-06T12:48:02;28.60;1.00
8487;DHT22;4280;50.534;8.708;2022-09-06T12:50:33;28.50;1.00
8487;DHT22;4280;50.534;8.708;2022-09-06T12:53:18;28.40;1.00
8487;DHT22;4280;50.534;8.708;2022-09-06T12:56:00;28.40;1.00
8487;DHT22;4280;50.534;8.708;2022-09-06T12:58:32;28.50;1.00
8487;DHT22;4280;50.534;8.708;2022-09-06T13:01:06;28.60;1.00
8487;DHT22;4280;50.534;8.708;2022-09-06T13:03:41;28.60;1.00
8487;DHT22;4280;50.534;8.708;2022-09-06T13:06:17;28.50;1.00
8487;DHT22;4280;50.534;8.708;2022-09-06T13:08:54;28.50;1.00
8487;DHT22;4280;50.534;8.708;2022-09-06T13:11:27;28.70;1.00
8487;DHT22;4280;50.534;8.708;2022-09-06T13:13:59;28.80;1.00
8487;DHT22;4280;50.534;8.708;2022-09-06T13:16:35;28.80;1.00
8487;DHT22;4280;50.534;8.708;2022-09-06T13:19:10;28.90;1.00
8487;DHT22;4280;50.534;8.708;2022-09-06T13:21:42;29.00;1.00
8487;DHT22;4280;50.534;8.708;2022-09-06T13:24:20;29.10;1.00
8487;DHT22;4280;50.534;8.708;2022-09-06T13:26:52;29.30;1.00
8487;DHT22;4280;50.534;8.708;2022-09-06T13:29:23;29.50;1.00
8487;DHT22;4280;50.534;8.708;2022-09-06T13:31:55;29.80;1.00
8487;DHT22;4280;50.534;8.708;2022-09-06T13:34:27;30.10;1.00
8487;DHT22;4280;50.534;8.708;2022-09-06T13:36:58;30.40;1.00
8487;DHT22;4280;50.534;8.708;2022-09-06T13:39:34;30.50;1.00
8487;DHT22;4280;50.534;8.708;2022-09-06T13:42:05;30.50;1.00
8487;DHT22;4280;50.534;8.708;2022-09-06T13:44:36;30.50;1.00
8487;DHT22;4280;50.534;8.708;2022-09-06T13:47:07;30.40;1.00
8487;DHT22;4280;50.534;8.708;2022-09-06T13:49:37;30.30;1.00
8487;DHT22;4280;50.534;8.708;2022-09-06T13:52:07;30.30;1.00
8487;DHT22;4280;50.534;8.708;2022-09-06T13:54:40;30.30;1.00
8487;DHT22;4280;50.534;8.708;2022-09-06T13:57:10;30.40;1.00
8487;DHT22;4280;50.534;8.708;2022-09-06T13:59:39;30.40;1.00
8487;DHT22;4280;50.534;8.708;2022-09-06T14:02:10;30.30;1.00
8487;DHT22;4280;50.534;8.708;2022-09-06T14:04:42;30.20;1.00
8487;DHT22;4280;50.534;8.708;2022-09-06T14:07:12;30.20;1.00
8487;DHT22;4280;50.534;8.708;2022-09-06T14:09:45;30.50;1.00
8487;DHT22;4280;50.534;8.708;2022-09-06T14:12:16;30.80;1.00
8487;DHT22;4280;50.534;8.708;2022-09-06T14:14:46;30.90;1.00
8487;DHT22;4280;50.534;8.708;2022-09-06T14:17:16;30.90;1.00
8487;DHT22;4280;50.534;8.708;2022-09-06T14:19:46;30.90;1.00
8487;DHT22;4280;50.534;8.708;2022-09-06T14:22:17;31.00;1.00
8487;DHT22;4280;50.534;8.708;2022-09-06T14:24:49;31.20;1.00
8487;DHT22;4280;50.534;8.708;2022-09-06T14:27:19;31.10;1.00
8487;DHT22;4280;50.534;8.708;2022-09-06T14:29:49;31.10;1.00
8487;DHT22;4280;50.534;8.708;2022-09-06T14:32:19;31.00;1.00
8487;DHT22;4280;50.534;8.708;2022-09-06T14:34:49;30.90;1.00
8487;DHT22;4280;50.534;8.708;2022-09-06T14:37:19;30.80;1.00
8487;DHT22;4280;50.534;8.708;2022-09-06T14:39:52;30.80;1.00
8487;DHT22;4280;50.534;8.708;2022-09-06T14:42:22;30.80;1.00
8487;DHT22;4280;50.534;8.708;2022-09-06T14:44:52;30.70;1.00
8487;DHT22;4280;50.534;8.708;2022-09-06T14:47:22;30.80;1.00
8487;DHT22;4280;50.534;8.708;2022-09-06T14:49:52;30.80;1.00
8487;DHT22;4280;50.534;8.708;2022-09-06T14:52:22;30.70;1.00
8487;DHT22;4280;50.534;8.708;2022-09-06T14:54:55;30.70;1.00
8487;DHT22;4280;50.534;8.708;2022-09-06T14:57:25;30.60;1.00
8487;DHT22;4280;50.534;8.708;2022-09-06T14:59:55;30.60;1.00
8487;DHT22;4280;50.534;8.708;2022-09-06T15:02:26;30.60;1.00
8487;DHT22;4280;50.534;8.708;2022-09-06T15:04:56;30.50;1.00
8487;DHT22;4280;50.534;8.708;2022-09-06T15:07:26;30.40;1.00
8487;DHT22;4280;50.534;8.708;2022-09-06T15:09:59;30.10;1.00
8487;DHT22;4280;50.534;8.708;2022-09-06T15:12:29;29.70;1.00
8487;DHT22;4280;50.534;8.708;2022-09-06T15:14:59;29.40;1.00
8487;DHT22;4280;50.534;8.708;2022-09-06T15:17:29;29.20;1.00
8487;DHT22;4280;50.534;8.708;2022-09-06T15:20:01;29.10;1.00
8487;DHT22;4280;50.534;8.708;2022-09-06T15:22:31;29.00;1.00
8487;DHT22;4280;50.534;8.708;2022-09-06T15:25:05;28.90;1.00
8487;DHT22;4280;50.534;8.708;2022-09-06T15:27:35;28.80;1.00
8487;DHT22;4280;50.534;8.708;2022-09-06T15:30:06;28.70;1.00
8487;DHT22;4280;50.534;8.708;2022-09-06T15:32:37;28.40;1.00
8487;DHT22;4280;50.534;8.708;2022-09-06T15:35:07;28.30;1.00
8487;DHT22;4280;50.534;8.708;2022-09-06T15:37:37;28.20;1.00
8487;DHT22;4280;50.534;8.708;2022-09-06T15:40:10;28.10;1.00
8487;DHT22;4280;50.534;8.708;2022-09-06T15:42:40;28.10;1.00
8487;DHT22;4280;50.534;8.708;2022-09-06T15:45:10;28.10;1.00
8487;DHT22;4280;50.534;8.708;2022-09-06T15:47:41;28.10;1.00
8487;DHT22;4280;50.534;8.708;2022-09-06T15:50:11;28.10;1.00
8487;DHT22;4280;50.534;8.708;2022-09-06T15:52:47;28.20;1.00
8487;DHT22;4280;50.534;8.708;2022-09-06T15:55:20;28.20;1.00
8487;DHT22;4280;50.534;8.708;2022-09-06T15:58:05;28.20;1.00
8487;DHT22;4280;50.534;8.708;2022-09-06T16:00:35;28.10;1.00
8487;DHT22;4280;50.534;8.708;2022-09-06T16:03:05;27.80;1.00
8487;DHT22;4280;50.534;8.708;2022-09-06T16:05:35;27.70;1.00
8487;DHT22;4280;50.534;8.708;2022-09-06T16:08:25;27.60;1.00
8487;DHT22;4280;50.534;8.708;2022-09-06T16:10:57;27.50;1.00
8487;DHT22;4280;50.534;8.708;2022-09-06T16:13:30;27.50;1.00
8487;DHT22;4280;50.534;8.708;2022-09-06T16:16:02;27.50;1.00
8487;DHT22;4280;50.534;8.708;2022-09-06T16:18:34;27.50;1.00
8487;DHT22;4280;50.534;8.708;2022-09-06T16:21:06;27.50;1.00
8487;DHT22;4280;50.534;8.708;2022-09-06T16:23:38;27.50;1.00
8487;DHT22;4280;50.534;8.708;2022-09-06T16:26:11;27.50;1.00
8487;DHT22;4280;50.534;8.708;2022-09-06T16:28:46;27.50;1.00
8487;DHT22;4280;50.534;8.708;2022-09-06T16:31:16;27.60;1.00
8487;DHT22;4280;50.534;8.708;2022-09-06T16:33:47;27.60;1.00
8487;DHT22;4280;50.534;8.708;2022-09-06T16:36:17;27.70;1.00
8487;DHT22;4280;50.534;8.708;2022-09-06T16:38:47;27.70;1.00
8487;DHT22;4280;50.534;8.708;2022-09-06T16:41:20;27.70;1.00
8487;DHT22;4280;50.534;8.708;2022-09-06T16:43:52;27.70;1.00
8487;DHT22;4280;50.534;8.708;2022-09-06T16:46:24;27.60;1.00
8487;DHT22;4280;50.534;8.708;2022-09-06T16:48:56;27.40;1.00
8487;DHT22;4280;50.534;8.708;2022-09-06T16:51:27;27.30;1.00
8487;DHT22;4280;50.534;8.708;2022-09-06T16:53:58;27.20;1.00
8487;DHT22;4280;50.534;8.708;2022-09-06T16:56:31;27.00;1.00
8487;DHT22;4280;50.534;8.708;2022-09-06T16:59:03;26.80;1.00
8487;DHT22;4280;50.534;8.708;2022-09-06T17:01:35;26.50;1.00
8487;DHT22;4280;50.534;8.708;2022-09-06T17:04:07;26.30;1.00
8487;DHT22;4280;50.534;8.708;2022-09-06T17:06:38;26.10;1.00
8487;DHT22;4280;50.534;8.708;2022-09-06T17:09:11;26.00;1.00
8487;DHT22;4280;50.534;8.708;2022-09-06T17:11:45;25.80;1.00
8487;DHT22;4280;50.534;8.708;2022-09-06T17:14:16;25.70;1.00
8487;DHT22;4280;50.534;8.708;2022-09-06T17:16:46;25.70;1.00
8487;DHT22;4280;50.534;8.708;2022-09-06T17:19:28;25.60;1.00
8487;DHT22;4280;50.534;8.708;2022-09-06T17:21:58;25.50;1.00
8487;DHT22;4280;50.534;8.708;2022-09-06T17:24:28;25.70;1.00
8487;DHT22;4280;50.534;8.708;2022-09-06T17:27:01;25.70;1.00
8487;DHT22;4280;50.534;8.708;2022-09-06T17:29:31;25.80;1.00
8487;DHT22;4280;50.534;8.708;2022-09-06T17:32:01;25.70;1.00
8487;DHT22;4280;50.534;8.708;2022-09-06T17:34:35;25.70;1.00
8487;DHT22;4280;50.534;8.708;2022-09-06T17:37:06;25.70;1.00
8487;DHT22;4280;50.534;8.708;2022-09-06T17:39:36;25.60;1.00
8487;DHT22;4280;50.534;8.708;2022-09-06T17:42:09;25.50;1.00
8487;DHT22;4280;50.534;8.708;2022-09-06T17:44:39;25.40;1.00
8487;DHT22;4280;50.534;8.708;2022-09-06T17:47:11;25.10;1.00
8487;DHT22;4280;50.534;8.708;2022-09-06T17:49:41;25.00;1.00
8487;DHT22;4280;50.534;8.708;2022-09-06T17:52:12;24.90;1.00
8487;DHT22;4280;50.534;8.708;2022-09-06T17:54:42;24.70;1.00
8487;DHT22;4280;50.534;8.708;2022-09-06T17:57:15;24.60;1.00
8487;DHT22;4280;50.534;8.708;2022-09-06T17:59:45;24.50;1.00
8487;DHT22;4280;50.534;8.708;2022-09-06T18:02:15;24.40;1.00
8487;DHT22;4280;50.534;8.708;2022-09-06T18:04:45;24.40;1.00
8487;DHT22;4280;50.534;8.708;2022-09-06T18:07:15;24.30;1.00
8487;DHT22;4280;50.534;8.708;2022-09-06T18:09:45;24.20;1.00
8487;DHT22;4280;50.534;8.708;2022-09-06T18:12:17;24.00;1.60
8487;DHT22;4280;50.534;8.708;2022-09-06T18:14:48;23.90;1.30
8487;DHT22;4280;50.534;8.708;2022-09-06T18:17:18;23.80;2.40
8487;DHT22;4280;50.534;8.708;2022-09-06T18:19:49;23.70;2.60
8487;DHT22;4280;50.534;8.708;2022-09-06T18:22:19;23.70;2.70
8487;DHT22;4280;50.534;8.708;2022-09-06T18:24:49;23.60;1.00
8487;DHT22;4280;50.534;8.708;2022-09-06T18:27:25;23.60;1.00
8487;DHT22;4280;50.534;8.708;2022-09-06T18:29:55;23.60;1.00
8487;DHT22;4280;50.534;8.708;2022-09-06T18:32:25;23.50;1.00
8487;DHT22;4280;50.534;8.708;2022-09-06T18:34:55;23.40;1.00
8487;DHT22;4280;50.534;8.708;2022-09-06T18:37:25;23.40;1.00
8487;DHT22;4280;50.534;8.708;2022-09-06T18:39:56;23.30;1.00
8487;DHT22;4280;50.534;8.708;2022-09-06T18:42:29;23.30;1.00
8487;DHT22;4280;50.534;8.708;2022-09-06T18:44:59;23.30;1.00
8487;DHT22;4280;50.534;8.708;2022-09-06T18:47:29;23.20;1.00
8487;DHT22;4280;50.534;8.708;2022-09-06T18:49:58;23.10;1.00
8487;DHT22;4280;50.534;8.708;2022-09-06T18:52:30;23.00;1.00
8487;DHT22;4280;50.534;8.708;2022-09-06T18:55:01;22.90;1.00
8487;DHT22;4280;50.534;8.708;2022-09-06T18:57:33;22.80;1.00
8487;DHT22;4280;50.534;8.708;2022-09-06T19:00:03;22.70;1.00
8487;DHT22;4280;50.534;8.708;2022-09-06T19:02:35;22.50;1.30
8487;DHT22;4280;50.534;8.708;2022-09-06T19:05:05;22.30;1.70
8487;DHT22;4280;50.534;8.708;2022-09-06T19:07:35;22.20;1.60
8487;DHT22;4280;50.534;8.708;2022-09-06T19:10:05;22.00;1.40
8487;DHT22;4280;50.534;8.708;2022-09-06T19:12:38;21.90;2.40
8487;DHT22;4280;50.534;8.708;2022-09-06T19:15:09;21.80;3.20
8487;DHT22;4280;50.534;8.708;2022-09-06T19:17:39;21.60;4.30
8487;DHT22;4280;50.534;8.708;2022-09-06T19:20:09;21.50;6.50
8487;DHT22;4280;50.534;8.708;2022-09-06T20:23:05;21.30;6.80
8487;DHT22;4280;50.534;8.708;2022-09-06T20:25:36;19.70;16.00
8487;DHT22;4280;50.534;8.708;2022-09-06T20:28:06;19.60;16.10
8487;DHT22;4280;50.534;8.708;2022-09-06T20:30:40;19.60;15.90
8487;DHT22;4280;50.534;8.708;2022-09-06T20:33:10;19.60;15.90
8487;DHT22;4280;50.534;8.708;2022-09-06T20:35:41;19.60;15.90
8487;DHT22;4280;50.534;8.708;2022-09-06T20:38:14;19.50;15.90
8487;DHT22;4280;50.534;8.708;2022-09-06T20:40:44;19.40;15.80
8487;DHT22;4280;50.534;8.708;2022-09-06T20:43:14;19.40;15.80
8487;DHT22;4280;50.534;8.708;2022-09-06T20:45:44;19.40;16.90
8487;DHT22;4280;50.534;8.708;2022-09-06T20:48:13;19.40;15.80
8487;DHT22;4280;50.534;8.708;2022-09-06T20:50:43;19.30;16.70
8487;DHT22;4280;50.534;8.708;2022-09-06T20:53:16;19.40;17.40
8487;DHT22;4280;50.534;8.708;2022-09-06T20:55:53;19.40;17.60
8487;DHT22;4280;50.534;8.708;2022-09-06T20:58:24;19.50;16.80
8487;DHT22;4280;50.534;8.708;2022-09-06T21:00:54;19.50;18.20
8487;DHT22;4280;50.534;8.708;2022-09-06T21:03:25;19.40;17.40
8487;DHT22;4280;50.534;8.708;2022-09-06T21:05:55;19.30;16.20
8487;DHT22;4280;50.534;8.708;2022-09-06T21:08:28;19.20;17.50
8487;DHT22;4280;50.534;8.708;2022-09-06T21:11:00;19.10;18.40
8487;DHT22;4280;50.534;8.708;2022-09-06T21:13:31;19.00;19.00
8487;DHT22;4280;50.534;8.708;2022-09-06T21:16:02;19.00;19.90
8487;DHT22;4280;50.534;8.708;2022-09-06T21:18:33;18.90;20.60
8487;DHT22;4280;50.534;8.708;2022-09-06T21:21:03;18.90;20.90
8487;DHT22;4280;50.534;8.708;2022-09-06T21:23:37;19.00;20.70
8487;DHT22;4280;50.534;8.708;2022-09-06T21:26:08;19.00;20.70
8487;DHT22;4280;50.534;8.708;2022-09-06T21:28:41;18.90;20.60
8487;DHT22;4280;50.534;8.708;2022-09-06T21:31:13;18.90;20.60